createdAt,value
2022-11-02T00:00:18.291Z,0.00
2022-11-02T00:01:18.402Z,0.00
2022-11-02T00:02:18.324Z,0.00
2022-11-02T00:03:18.333Z,0.00
2022-11-02T00:04:18.307Z,0.00
2022-11-02T00:05:18.430Z,0.00
2022-11-02T00:06:20.456Z,0.00
2022-11-02T00:07:18.588Z,0.00
2022-11-02T00:08:18.339Z,0.00
2022-11-02T00:09:18.223Z,0.00
2022-11-02T00:10:18.292Z,0.00
2022-11-02T00:11:18.353Z,0.00
2022-11-02T00:12:18.406Z,0.00
2022-11-02T00:13:18.379Z,0.00
2022-11-02T00:14:18.401Z,0.00
2022-11-02T00:15:18.790Z,0.00
2022-11-02T00:16:18.548Z,0.00
2022-11-02T00:17:19.214Z,0.00
2022-11-02T00:18:18.464Z,0.00
2022-11-02T00:19:18.335Z,0.00
2022-11-02T00:20:19.253Z,0.00
2022-11-02T00:21:18.210Z,0.00
2022-11-02T00:22:18.329Z,0.00
2022-11-02T00:23:18.117Z,0.00
2022-11-02T00:24:19.220Z,0.00
2022-11-02T00:25:19.160Z,0.00
2022-11-02T00:26:19.553Z,0.00
2022-11-02T00:27:18.448Z,0.00
2022-11-02T00:28:19.137Z,0.00
2022-11-02T00:29:21.416Z,0.00
2022-11-02T00:30:20.365Z,0.00
2022-11-02T00:31:18.155Z,0.00
2022-11-02T00:32:18.275Z,0.00
2022-11-02T00:33:18.085Z,0.00
2022-11-02T00:34:18.638Z,0.00
2022-11-02T00:35:18.052Z,0.00
2022-11-02T00:36:19.013Z,0.00
2022-11-02T00:37:18.059Z,0.00
2022-11-02T00:38:17.962Z,0.00
2022-11-02T00:39:18.181Z,0.00
2022-11-02T00:40:18.279Z,0.00
2022-11-02T00:41:18.136Z,0.00
2022-11-02T00:42:18.170Z,0.00
2022-11-02T00:43:18.157Z,0.00
2022-11-02T00:44:19.035Z,0.00
2022-11-02T00:45:18.197Z,0.00
2022-11-02T00:46:18.507Z,0.00
2022-11-02T00:47:18.545Z,0.00
2022-11-02T00:48:18.278Z,0.00
2022-11-02T00:49:18.684Z,0.00
2022-11-02T00:50:17.907Z,0.00
2022-11-02T00:51:19.169Z,0.00
2022-11-02T00:52:18.656Z,0.00
2022-11-02T00:53:18.386Z,0.00
2022-11-02T00:54:18.492Z,0.00
2022-11-02T00:55:18.185Z,0.00
2022-11-02T00:56:18.253Z,0.00
2022-11-02T00:57:17.767Z,0.00
2022-11-02T00:58:18.020Z,0.00
2022-11-02T00:59:18.718Z,0.00
2022-11-02T01:00:19.038Z,0.00
2022-11-02T01:01:17.803Z,0.00
2022-11-02T01:02:18.148Z,0.00
2022-11-02T01:03:18.656Z,0.00
2022-11-02T01:04:17.870Z,0.00
2022-11-02T01:05:17.760Z,0.00
2022-11-02T01:06:18.778Z,0.00
2022-11-02T01:07:18.149Z,0.00
2022-11-02T01:08:18.126Z,0.00
2022-11-02T01:09:18.940Z,0.00
2022-11-02T01:10:17.821Z,0.00
2022-11-02T01:11:17.684Z,0.00
2022-11-02T01:12:17.522Z,0.00
2022-11-02T01:13:17.628Z,0.00
2022-11-02T01:14:17.691Z,0.00
2022-11-02T01:15:17.533Z,0.00
2022-11-02T01:16:17.446Z,0.00
2022-11-02T01:17:17.466Z,0.00
2022-11-02T01:18:17.432Z,0.00
2022-11-02T01:19:17.534Z,0.00
2022-11-02T01:20:18.687Z,0.00
2022-11-02T01:21:17.435Z,0.00
2022-11-02T01:22:18.229Z,0.00
2022-11-02T01:23:17.663Z,0.00
2022-11-02T01:24:17.764Z,0.00
2022-11-02T01:25:17.575Z,0.00
2022-11-02T01:26:18.095Z,0.00
2022-11-02T01:27:17.590Z,0.00
2022-11-02T01:28:17.629Z,0.00
2022-11-02T01:29:17.639Z,0.00
2022-11-02T01:30:17.602Z,0.00
2022-11-02T01:31:17.797Z,0.00
2022-11-02T01:32:17.432Z,0.00
2022-11-02T01:33:17.281Z,0.00
2022-11-02T01:34:17.947Z,0.00
2022-11-02T01:35:17.427Z,0.00
2022-11-02T01:36:17.451Z,0.00
2022-11-02T01:37:18.106Z,0.00
2022-11-02T01:38:17.265Z,0.00
2022-11-02T01:39:17.234Z,0.00
2022-11-02T01:40:17.195Z,0.00
2022-11-02T01:41:17.215Z,0.00
2022-11-02T01:42:17.164Z,0.00
2022-11-02T01:43:17.180Z,0.00
2022-11-02T01:44:17.161Z,0.00
2022-11-02T01:45:17.173Z,0.00
2022-11-02T01:46:17.122Z,0.00
2022-11-02T01:47:17.130Z,0.00
2022-11-02T01:48:17.338Z,0.00
2022-11-02T01:49:17.165Z,0.00
2022-11-02T01:50:17.080Z,0.00
2022-11-02T01:51:17.156Z,0.00
2022-11-02T01:52:17.060Z,0.00
2022-11-02T01:53:17.823Z,0.00
2022-11-02T01:54:17.110Z,0.00
2022-11-02T01:55:17.135Z,0.00
2022-11-02T01:56:18.960Z,0.00
2022-11-02T01:57:17.166Z,0.00
2022-11-02T01:58:17.056Z,0.00
2022-11-02T01:59:17.190Z,0.00
2022-11-02T02:00:17.118Z,0.00
2022-11-02T02:01:17.304Z,0.00
2022-11-02T02:02:17.133Z,0.00
2022-11-02T02:03:17.214Z,0.00
2022-11-02T02:04:17.860Z,0.00
2022-11-02T02:05:16.973Z,0.00
2022-11-02T02:06:16.909Z,0.00
2022-11-02T02:07:18.054Z,0.00
2022-11-02T02:08:17.261Z,0.00
2022-11-02T02:09:16.880Z,0.00
2022-11-02T02:10:16.896Z,0.00
2022-11-02T02:11:16.879Z,0.00
2022-11-02T02:12:16.842Z,0.00
2022-11-02T02:13:17.199Z,0.00
2022-11-02T02:14:16.863Z,0.00
2022-11-02T02:15:16.911Z,0.00
2022-11-02T02:16:16.837Z,0.00
2022-11-02T02:17:16.799Z,0.00
2022-11-02T02:18:16.879Z,0.00
2022-11-02T02:19:16.784Z,0.00
2022-11-02T02:20:17.016Z,0.00
2022-11-02T02:21:16.856Z,0.00
2022-11-02T02:22:16.783Z,0.00
2022-11-02T02:23:16.737Z,0.00
2022-11-02T02:24:16.791Z,0.00
2022-11-02T02:25:16.752Z,0.00
2022-11-02T02:26:16.699Z,0.00
2022-11-02T02:27:16.730Z,0.00
2022-11-02T02:28:16.717Z,0.00
2022-11-02T02:29:16.680Z,0.00
2022-11-02T02:30:16.648Z,0.00
2022-11-02T02:31:16.659Z,0.00
2022-11-02T02:32:16.646Z,0.00
2022-11-02T02:33:16.657Z,0.00
2022-11-02T02:34:16.635Z,0.00
2022-11-02T02:35:16.639Z,0.00
2022-11-02T02:36:16.620Z,0.00
2022-11-02T02:37:16.616Z,0.00
2022-11-02T02:38:16.590Z,0.00
2022-11-02T02:39:16.624Z,0.00
2022-11-02T02:40:16.566Z,0.00
2022-11-02T02:41:16.561Z,0.00
2022-11-02T02:42:16.517Z,0.00
2022-11-02T02:43:16.506Z,0.00
2022-11-02T02:44:16.499Z,0.00
2022-11-02T02:45:16.497Z,0.00
2022-11-02T02:46:16.475Z,0.00
2022-11-02T02:47:16.490Z,0.00
2022-11-02T02:48:16.468Z,0.00
2022-11-02T02:49:16.447Z,0.00
2022-11-02T02:50:16.477Z,0.00
2022-11-02T02:51:16.430Z,0.00
2022-11-02T02:52:16.415Z,0.00
2022-11-02T02:53:16.556Z,0.00
2022-11-02T02:54:16.726Z,0.00
2022-11-02T02:55:16.432Z,0.00
2022-11-02T02:56:16.549Z,0.00
2022-11-02T02:57:16.405Z,0.00
2022-11-02T02:58:16.450Z,0.00
2022-11-02T02:59:16.408Z,0.00
2022-11-02T03:00:16.504Z,0.00
2022-11-02T03:01:16.427Z,0.00
2022-11-02T03:02:16.430Z,0.00
2022-11-02T03:03:16.336Z,0.00
2022-11-02T03:04:16.339Z,0.00
2022-11-02T03:05:16.434Z,0.00
2022-11-02T03:06:16.408Z,0.00
2022-11-02T03:07:16.329Z,0.00
2022-11-02T03:08:16.339Z,0.00
2022-11-02T03:09:16.334Z,0.00
2022-11-02T03:10:16.271Z,0.00
2022-11-02T03:11:16.461Z,0.00
2022-11-02T03:12:16.275Z,0.00
2022-11-02T03:13:16.293Z,0.00
2022-11-02T03:14:16.222Z,0.00
2022-11-02T03:15:16.178Z,0.00
2022-11-02T03:16:16.227Z,0.00
2022-11-02T03:17:16.198Z,0.00
2022-11-02T03:18:16.133Z,0.00
2022-11-02T03:19:16.141Z,0.00
2022-11-02T03:20:16.200Z,0.00
2022-11-02T03:21:16.125Z,0.00
2022-11-02T03:22:16.111Z,0.00
2022-11-02T03:23:16.108Z,0.00
2022-11-02T03:24:16.090Z,0.00
2022-11-02T03:25:16.097Z,0.00
2022-11-02T03:26:16.150Z,0.00
2022-11-02T03:27:16.034Z,0.00
2022-11-02T03:28:16.029Z,0.00
2022-11-02T03:29:16.093Z,0.00
2022-11-02T03:30:15.996Z,0.00
2022-11-02T03:31:15.996Z,0.00
2022-11-02T03:32:15.997Z,0.00
2022-11-02T03:33:15.981Z,0.00
2022-11-02T03:34:16.008Z,0.00
2022-11-02T03:35:15.968Z,0.00
2022-11-02T03:36:15.978Z,0.00
2022-11-02T03:37:15.913Z,0.00
2022-11-02T03:38:15.927Z,0.00
2022-11-02T03:39:15.922Z,0.00
2022-11-02T03:40:15.886Z,0.00
2022-11-02T03:41:15.916Z,0.00
2022-11-02T03:42:15.864Z,0.00
2022-11-02T03:43:15.876Z,0.00
2022-11-02T03:44:15.842Z,0.00
2022-11-02T03:45:15.844Z,0.00
2022-11-02T03:46:15.842Z,0.00
2022-11-02T03:47:15.862Z,0.00
2022-11-02T03:48:15.802Z,0.00
2022-11-02T03:49:15.834Z,0.00
2022-11-02T03:50:15.808Z,0.00
2022-11-02T03:51:15.774Z,0.00
2022-11-02T03:52:15.787Z,0.00
2022-11-02T03:53:15.766Z,0.00
2022-11-02T03:54:15.731Z,0.00
2022-11-02T03:55:15.741Z,0.00
2022-11-02T03:56:15.725Z,0.00
2022-11-02T03:57:15.713Z,0.00
2022-11-02T03:58:15.705Z,0.00
2022-11-02T03:59:15.738Z,0.00
2022-11-02T04:00:15.686Z,0.00
2022-11-02T04:01:15.696Z,0.00
2022-11-02T04:02:15.788Z,0.00
2022-11-02T04:03:15.665Z,0.00
2022-11-02T04:04:15.630Z,0.00
2022-11-02T04:05:15.623Z,0.00
2022-11-02T04:06:15.634Z,0.00
2022-11-02T04:07:16.413Z,0.00
2022-11-02T04:08:15.611Z,0.00
2022-11-02T04:09:15.626Z,0.00
2022-11-02T04:10:15.574Z,0.00
2022-11-02T04:11:15.574Z,0.00
2022-11-02T04:12:15.595Z,0.00
2022-11-02T04:13:15.542Z,0.00
2022-11-02T04:14:15.545Z,0.00
2022-11-02T04:15:15.524Z,0.00
2022-11-02T04:16:15.505Z,0.00
2022-11-02T04:17:15.497Z,0.00
2022-11-02T04:18:15.498Z,0.00
2022-11-02T04:19:15.509Z,0.00
2022-11-02T04:20:15.498Z,0.00
2022-11-02T04:21:15.486Z,0.00
2022-11-02T04:22:15.467Z,0.00
2022-11-02T04:23:15.471Z,0.00
2022-11-02T04:24:15.415Z,0.00
2022-11-02T04:25:15.421Z,0.00
2022-11-02T04:26:15.426Z,0.00
2022-11-02T04:27:19.680Z,0.00
2022-11-02T04:28:16.403Z,0.00
2022-11-02T04:29:15.383Z,0.00
2022-11-02T04:30:15.358Z,0.00
2022-11-02T04:31:15.342Z,0.00
2022-11-02T04:32:15.344Z,0.00
2022-11-02T04:33:15.304Z,0.00
2022-11-02T04:34:15.323Z,0.00
2022-11-02T04:35:15.289Z,0.00
2022-11-02T04:36:15.300Z,0.00
2022-11-02T04:37:15.303Z,0.00
2022-11-02T04:38:15.280Z,0.00
2022-11-02T04:39:15.253Z,0.00
2022-11-02T04:40:15.252Z,0.00
2022-11-02T04:41:15.243Z,0.00
2022-11-02T04:42:15.233Z,0.00
2022-11-02T04:43:15.223Z,0.00
2022-11-02T04:44:15.230Z,0.00
2022-11-02T04:45:15.227Z,0.00
2022-11-02T04:46:15.203Z,0.00
2022-11-02T04:47:15.171Z,0.00
2022-11-02T04:48:15.180Z,0.00
2022-11-02T04:49:15.138Z,0.00
2022-11-02T04:50:15.170Z,0.00
2022-11-02T04:51:15.147Z,0.00
2022-11-02T04:52:15.135Z,0.00
2022-11-02T04:53:15.109Z,0.00
2022-11-02T04:54:15.099Z,0.00
2022-11-02T04:55:15.099Z,0.00
2022-11-02T04:56:15.079Z,0.00
2022-11-02T04:57:15.067Z,0.00
2022-11-02T04:58:15.108Z,0.00
2022-11-02T04:59:15.041Z,0.00
2022-11-02T05:00:15.044Z,0.00
2022-11-02T05:01:15.094Z,0.00
2022-11-02T05:02:15.090Z,0.00
2022-11-02T05:03:14.986Z,0.00
2022-11-02T05:04:15.035Z,0.00
2022-11-02T05:05:14.981Z,0.00
2022-11-02T05:06:14.974Z,0.00
2022-11-02T05:07:14.938Z,0.00
2022-11-02T05:08:14.937Z,0.00
2022-11-02T05:09:14.929Z,0.00
2022-11-02T05:10:14.931Z,0.00
2022-11-02T05:11:14.951Z,0.00
2022-11-02T05:12:14.909Z,0.00
2022-11-02T05:13:14.879Z,0.00
2022-11-02T05:14:14.901Z,0.00
2022-11-02T05:15:14.868Z,0.00
2022-11-02T05:16:15.233Z,0.00
2022-11-02T05:17:14.871Z,0.00
2022-11-02T05:18:18.644Z,0.00
2022-11-02T05:19:14.831Z,0.00
2022-11-02T05:20:14.830Z,0.00
2022-11-02T05:21:14.844Z,0.00
2022-11-02T05:22:14.881Z,0.00
2022-11-02T05:23:14.805Z,0.00
2022-11-02T05:24:14.890Z,0.00
2022-11-02T05:25:14.782Z,0.00
2022-11-02T05:26:14.759Z,0.00
2022-11-02T05:27:14.770Z,0.00
2022-11-02T05:28:14.736Z,0.00
2022-11-02T05:29:14.719Z,0.00
2022-11-02T05:30:14.727Z,0.00
2022-11-02T05:31:14.773Z,0.00
2022-11-02T05:32:14.692Z,0.00
2022-11-02T05:33:14.688Z,0.00
2022-11-02T05:34:21.672Z,0.00
2022-11-02T05:35:14.658Z,0.00
2022-11-02T05:36:14.647Z,0.00
2022-11-02T05:37:14.624Z,0.00
2022-11-02T05:38:14.627Z,0.00
2022-11-02T05:39:14.609Z,0.00
2022-11-02T05:40:14.627Z,0.00
2022-11-02T05:41:14.593Z,0.00
2022-11-02T05:42:14.583Z,0.00
2022-11-02T05:43:14.578Z,0.00
2022-11-02T05:44:14.555Z,0.00
2022-11-02T05:45:14.546Z,0.00
2022-11-02T05:46:14.549Z,0.00
2022-11-02T05:47:14.506Z,0.00
2022-11-02T05:48:14.501Z,0.00
2022-11-02T05:49:14.482Z,0.00
2022-11-02T05:50:14.494Z,0.00
2022-11-02T05:51:14.472Z,0.00
2022-11-02T05:52:14.480Z,0.00
2022-11-02T05:53:14.458Z,0.00
2022-11-02T05:54:14.441Z,0.00
2022-11-02T05:55:14.452Z,0.00
2022-11-02T05:56:14.435Z,0.00
2022-11-02T05:57:14.404Z,0.00
2022-11-02T05:58:14.413Z,0.00
2022-11-02T05:59:14.419Z,0.00
2022-11-02T06:00:14.396Z,0.00
2022-11-02T06:01:14.432Z,0.00
2022-11-02T06:02:14.364Z,0.00
2022-11-02T06:03:14.357Z,0.00
2022-11-02T06:04:14.395Z,0.00
2022-11-02T06:05:14.395Z,0.00
2022-11-02T06:06:14.324Z,0.00
2022-11-02T06:07:14.304Z,0.00
2022-11-02T06:08:14.341Z,0.00
2022-11-02T06:09:14.296Z,0.00
2022-11-02T06:10:14.267Z,0.00
2022-11-02T06:11:14.322Z,0.00
2022-11-02T06:12:14.264Z,0.00
2022-11-02T06:13:14.223Z,0.00
2022-11-02T06:14:14.261Z,0.00
2022-11-02T06:15:14.211Z,0.00
2022-11-02T06:16:16.393Z,0.00
2022-11-02T06:17:14.214Z,0.00
2022-11-02T06:18:14.185Z,0.00
2022-11-02T06:20:14.188Z,4.00
2022-11-02T06:21:14.157Z,4.00
2022-11-02T06:22:14.142Z,0.00
2022-11-02T06:23:14.117Z,0.00
2022-11-02T06:24:14.126Z,0.00
2022-11-02T06:25:14.131Z,0.00
2022-11-02T06:26:14.104Z,0.00
2022-11-02T06:27:14.081Z,0.00
2022-11-02T06:28:14.084Z,0.00
2022-11-02T06:29:14.058Z,0.00
2022-11-02T06:30:14.061Z,0.00
2022-11-02T06:31:14.058Z,0.00
2022-11-02T06:32:14.029Z,4.00
2022-11-02T06:33:14.264Z,4.00
2022-11-02T06:34:14.027Z,4.00
2022-11-02T06:35:14.007Z,4.00
2022-11-02T06:36:14.002Z,4.00
2022-11-02T06:37:13.969Z,4.00
2022-11-02T06:38:13.979Z,4.00
2022-11-02T06:39:13.953Z,4.00
2022-11-02T06:40:13.956Z,4.00
2022-11-02T06:41:13.948Z,4.00
2022-11-02T06:42:13.947Z,4.00
2022-11-02T06:43:17.844Z,4.00
2022-11-02T06:44:13.900Z,0.00
2022-11-02T06:45:13.881Z,0.00
2022-11-02T06:46:13.882Z,0.00
2022-11-02T06:47:13.870Z,0.00
2022-11-02T06:48:13.873Z,0.00
2022-11-02T06:49:13.854Z,4.00
2022-11-02T06:50:13.866Z,4.00
2022-11-02T06:51:13.832Z,4.00
2022-11-02T06:52:13.840Z,4.00
2022-11-02T06:53:13.806Z,0.00
2022-11-02T06:54:13.789Z,0.00
2022-11-02T06:55:13.805Z,0.00
2022-11-02T06:56:13.761Z,4.00
2022-11-02T06:57:13.759Z,4.00
2022-11-02T06:58:13.753Z,4.00
2022-11-02T06:59:13.723Z,4.00
2022-11-02T07:00:15.544Z,4.00
2022-11-02T07:01:13.868Z,4.00
2022-11-02T07:02:13.782Z,4.00
2022-11-02T07:03:13.704Z,4.00
2022-11-02T07:04:13.675Z,4.00
2022-11-02T07:05:13.665Z,4.00
2022-11-02T07:06:14.498Z,4.00
2022-11-02T07:07:13.693Z,4.00
2022-11-02T07:08:13.645Z,8.00
2022-11-02T07:09:13.631Z,4.00
2022-11-02T07:10:13.610Z,4.00
2022-11-02T07:11:13.612Z,4.00
2022-11-02T07:12:13.601Z,4.00
2022-11-02T07:13:13.572Z,4.00
2022-11-02T07:14:13.577Z,8.00
2022-11-02T07:15:13.558Z,4.00
2022-11-02T07:16:13.584Z,8.00
2022-11-02T07:17:13.542Z,8.00
2022-11-02T07:18:13.528Z,8.00
2022-11-02T07:19:13.529Z,4.00
2022-11-02T07:20:13.520Z,4.00
2022-11-02T07:21:13.537Z,8.00
2022-11-02T07:22:13.499Z,8.00
2022-11-02T07:23:13.497Z,4.00
2022-11-02T07:24:13.458Z,4.00
2022-11-02T07:25:13.449Z,4.00
2022-11-02T07:26:13.454Z,4.00
2022-11-02T07:27:13.427Z,8.00
2022-11-02T07:28:13.450Z,8.00
2022-11-02T07:29:13.414Z,8.00
2022-11-02T07:30:13.420Z,8.00
2022-11-02T07:31:13.400Z,8.00
2022-11-02T07:32:13.377Z,8.00
2022-11-02T07:33:13.383Z,8.00
2022-11-02T07:34:16.873Z,8.00
2022-11-02T07:35:13.340Z,8.00
2022-11-02T07:36:13.341Z,4.00
2022-11-02T07:37:13.320Z,8.00
2022-11-02T07:38:13.307Z,8.00
2022-11-02T07:39:13.314Z,8.00
2022-11-02T07:40:13.288Z,4.00
2022-11-02T07:41:13.284Z,8.00
2022-11-02T07:42:13.292Z,8.00
2022-11-02T07:43:13.246Z,8.00
2022-11-02T07:44:13.248Z,8.00
2022-11-02T07:45:13.228Z,8.00
2022-11-02T07:46:13.241Z,8.00
2022-11-02T07:47:13.197Z,8.00
2022-11-02T07:48:13.210Z,8.00
2022-11-02T07:49:17.310Z,8.00
2022-11-02T07:50:14.194Z,12.00
2022-11-02T07:51:13.167Z,8.00
2022-11-02T07:52:13.165Z,12.00
2022-11-02T07:53:13.157Z,12.00
2022-11-02T07:54:13.126Z,16.00
2022-11-02T07:55:13.140Z,20.00
2022-11-02T07:56:13.136Z,20.00
2022-11-02T07:57:13.117Z,28.00
2022-11-02T07:58:13.085Z,32.00
2022-11-02T07:59:13.094Z,32.00
2022-11-02T08:00:13.065Z,36.00
2022-11-02T08:01:13.134Z,40.00
2022-11-02T08:02:13.044Z,40.00
2022-11-02T08:03:13.108Z,48.00
2022-11-02T08:04:13.068Z,60.00
2022-11-02T08:05:13.013Z,60.00
2022-11-02T08:06:13.037Z,68.00
2022-11-02T08:07:12.989Z,68.00
2022-11-02T08:08:12.983Z,72.00
2022-11-02T08:09:12.972Z,72.00
2022-11-02T08:10:12.960Z,72.00
2022-11-02T08:11:12.968Z,72.00
2022-11-02T08:12:12.948Z,72.00
2022-11-02T08:13:12.937Z,76.00
2022-11-02T08:14:13.041Z,72.00
2022-11-02T08:15:12.916Z,76.00
2022-11-02T08:16:12.916Z,76.00
2022-11-02T08:17:12.912Z,72.00
2022-11-02T08:18:12.873Z,64.00
2022-11-02T08:19:12.856Z,60.00
2022-11-02T08:20:12.861Z,56.00
2022-11-02T08:21:12.849Z,52.00
2022-11-02T08:22:12.834Z,48.00
2022-11-02T08:23:12.823Z,48.00
2022-11-02T08:24:12.825Z,44.00
2022-11-02T08:25:12.872Z,44.00
2022-11-02T08:26:12.817Z,32.00
2022-11-02T08:27:12.766Z,20.00
2022-11-02T08:28:12.777Z,16.00
2022-11-02T08:29:12.742Z,20.00
2022-11-02T08:30:12.742Z,28.00
2022-11-02T08:31:12.751Z,16.00
2022-11-02T08:32:12.735Z,20.00
2022-11-02T08:33:12.717Z,28.00
2022-11-02T08:34:12.724Z,24.00
2022-11-02T08:35:12.683Z,16.00
2022-11-02T08:36:12.689Z,16.00
2022-11-02T08:37:12.681Z,16.00
2022-11-02T08:38:12.666Z,40.00
2022-11-02T08:39:17.714Z,40.00
2022-11-02T08:40:13.632Z,24.00
2022-11-02T08:41:12.635Z,20.00
2022-11-02T08:42:12.641Z,20.00
2022-11-02T08:43:12.726Z,16.00
2022-11-02T08:44:12.608Z,28.00
2022-11-02T08:45:12.622Z,24.00
2022-11-02T08:46:15.187Z,20.00
2022-11-02T08:47:12.552Z,16.00
2022-11-02T08:48:12.565Z,12.00
2022-11-02T08:49:12.548Z,12.00
2022-11-02T08:50:12.522Z,12.00
2022-11-02T08:51:12.510Z,8.00
2022-11-02T08:52:12.521Z,4.00
2022-11-02T08:53:12.483Z,8.00
2022-11-02T08:54:12.482Z,4.00
2022-11-02T08:55:12.486Z,4.00
2022-11-02T08:56:12.464Z,8.00
2022-11-02T08:57:12.463Z,8.00
2022-11-02T08:58:12.443Z,4.00
2022-11-02T08:59:12.433Z,8.00
2022-11-02T09:00:12.470Z,8.00
2022-11-02T09:01:12.498Z,8.00
2022-11-02T09:02:12.571Z,8.00
2022-11-02T09:03:12.424Z,8.00
2022-11-02T09:04:12.384Z,8.00
2022-11-02T09:05:12.361Z,8.00
2022-11-02T09:06:12.374Z,8.00
2022-11-02T09:07:12.393Z,8.00
2022-11-02T09:08:12.507Z,12.00
2022-11-02T09:09:12.310Z,12.00
2022-11-02T09:10:12.310Z,12.00
2022-11-02T09:11:12.303Z,16.00
2022-11-02T09:12:12.293Z,16.00
2022-11-02T09:13:12.288Z,20.00
2022-11-02T09:14:12.323Z,24.00
2022-11-02T09:15:12.250Z,28.00
2022-11-02T09:16:12.230Z,24.00
2022-11-02T09:17:12.232Z,32.00
2022-11-02T09:18:12.267Z,36.00
2022-11-02T09:19:12.205Z,28.00
2022-11-02T09:20:12.253Z,24.00
2022-11-02T09:21:12.205Z,24.00
2022-11-02T09:22:12.186Z,44.00
2022-11-02T09:23:12.184Z,68.00
2022-11-02T09:24:12.166Z,112.00
2022-11-02T09:25:12.175Z,28.00
2022-11-02T09:26:12.169Z,36.00
2022-11-02T09:27:12.160Z,32.00
2022-11-02T09:28:12.131Z,56.00
2022-11-02T09:29:12.137Z,40.00
2022-11-02T09:30:12.098Z,28.00
2022-11-02T09:31:12.112Z,28.00
2022-11-02T09:32:12.101Z,28.00
2022-11-02T09:33:12.081Z,24.00
2022-11-02T09:34:12.048Z,20.00
2022-11-02T09:35:12.052Z,24.00
2022-11-02T09:36:12.019Z,20.00
2022-11-02T09:37:12.006Z,24.00
2022-11-02T09:38:12.020Z,24.00
2022-11-02T09:39:11.999Z,24.00
2022-11-02T09:40:12.025Z,28.00
2022-11-02T09:41:11.966Z,104.00
2022-11-02T09:42:11.966Z,96.00
2022-11-02T09:43:11.956Z,60.00
2022-11-02T09:44:11.916Z,88.00
2022-11-02T09:45:11.950Z,84.00
2022-11-02T09:46:11.950Z,92.00
2022-11-02T09:48:19.716Z,96.00
2022-11-02T09:49:12.875Z,96.00
2022-11-02T09:50:11.915Z,100.00
2022-11-02T09:51:11.864Z,88.00
2022-11-02T09:52:11.858Z,96.00
2022-11-02T09:53:11.848Z,92.00
2022-11-02T09:54:14.670Z,88.00
2022-11-02T09:55:12.840Z,88.00
2022-11-02T09:56:11.818Z,88.00
2022-11-02T09:57:11.804Z,92.00
2022-11-02T09:58:11.790Z,88.00
2022-11-02T09:59:11.785Z,92.00
2022-11-02T10:00:11.760Z,88.00
2022-11-02T10:01:11.811Z,88.00
2022-11-02T10:02:11.748Z,88.00
2022-11-02T10:03:11.758Z,88.00
2022-11-02T10:04:11.714Z,84.00
2022-11-02T10:05:11.727Z,84.00
2022-11-02T10:06:11.719Z,84.00
2022-11-02T10:07:11.682Z,88.00
2022-11-02T10:08:11.683Z,92.00
2022-11-02T10:09:11.670Z,92.00
2022-11-02T10:10:11.650Z,92.00
2022-11-02T10:11:11.668Z,84.00
2022-11-02T10:12:11.638Z,84.00
2022-11-02T10:13:11.629Z,84.00
2022-11-02T10:14:11.613Z,88.00
2022-11-02T10:15:11.620Z,88.00
2022-11-02T10:16:11.584Z,92.00
2022-11-02T10:17:11.693Z,92.00
2022-11-02T10:18:11.567Z,96.00
2022-11-02T10:19:11.551Z,92.00
2022-11-02T10:20:11.706Z,96.00
2022-11-02T10:21:11.549Z,96.00
2022-11-02T10:22:11.561Z,96.00
2022-11-02T10:23:11.512Z,96.00
2022-11-02T10:24:11.483Z,96.00
2022-11-02T10:25:11.492Z,96.00
2022-11-02T10:26:11.491Z,96.00
2022-11-02T10:27:14.106Z,96.00
2022-11-02T10:28:11.550Z,96.00
2022-11-02T10:29:11.455Z,92.00
2022-11-02T10:30:11.455Z,92.00
2022-11-02T10:31:15.439Z,92.00
2022-11-02T10:32:11.435Z,96.00
2022-11-02T10:33:11.420Z,92.00
2022-11-02T10:34:11.397Z,96.00
2022-11-02T10:35:29.970Z,96.00
2022-11-02T10:36:18.234Z,96.00
2022-11-02T10:37:12.394Z,96.00
2022-11-02T10:38:14.923Z,96.00
2022-11-02T10:39:11.344Z,96.00
2022-11-02T10:40:11.320Z,96.00
2022-11-02T10:41:11.347Z,96.00
2022-11-02T10:42:11.312Z,96.00
2022-11-02T10:43:11.304Z,96.00
2022-11-02T10:44:11.280Z,96.00
2022-11-02T10:45:11.269Z,96.00
2022-11-02T10:46:11.264Z,100.00
2022-11-02T10:47:11.274Z,100.00
2022-11-02T10:48:11.244Z,100.00
2022-11-02T10:49:11.242Z,48.00
2022-11-02T10:50:12.450Z,104.00
2022-11-02T10:51:11.213Z,104.00
2022-11-02T10:52:11.202Z,104.00
2022-11-02T10:53:35.175Z,104.00
2022-11-02T10:54:12.171Z,224.00
2022-11-02T10:55:11.168Z,204.00
2022-11-02T10:56:11.146Z,204.00
2022-11-02T10:57:11.153Z,196.00
2022-11-02T10:58:11.163Z,196.00
2022-11-02T10:59:11.108Z,196.00
2022-11-02T11:00:11.123Z,220.00
2022-11-02T11:01:11.264Z,224.00
2022-11-02T11:02:11.117Z,236.00
2022-11-02T11:03:11.094Z,236.00
2022-11-02T11:04:11.069Z,244.00
2022-11-02T11:05:11.071Z,252.00
2022-11-02T11:06:11.054Z,252.00
2022-11-02T11:07:11.053Z,252.00
2022-11-02T11:08:11.080Z,252.00
2022-11-02T11:09:11.040Z,256.00
2022-11-02T11:10:11.042Z,256.00
2022-11-02T11:11:11.029Z,256.00
2022-11-02T11:12:10.989Z,260.00
2022-11-02T11:16:16.283Z,212.00
2022-11-02T11:19:41.601Z,268.00
2022-11-02T11:20:11.904Z,268.00
2022-11-02T11:21:10.940Z,272.00
2022-11-02T11:22:10.857Z,272.00
2022-11-02T11:23:10.867Z,284.00
2022-11-02T11:24:10.888Z,288.00
2022-11-02T11:25:10.882Z,292.00
2022-11-02T11:26:10.904Z,292.00
2022-11-02T11:27:10.817Z,300.00
2022-11-02T11:28:10.850Z,272.00
2022-11-02T11:29:10.815Z,308.00
2022-11-02T11:30:10.815Z,140.00
2022-11-02T11:31:10.798Z,228.00
2022-11-02T11:32:10.811Z,268.00
2022-11-02T11:33:10.770Z,120.00
2022-11-02T11:34:10.743Z,320.00
2022-11-02T11:35:10.757Z,284.00
2022-11-02T11:36:10.756Z,92.00
2022-11-02T11:37:10.721Z,236.00
2022-11-02T11:38:10.783Z,60.00
2022-11-02T11:39:10.716Z,128.00
2022-11-02T11:40:10.685Z,52.00
2022-11-02T11:41:10.666Z,52.00
2022-11-02T11:42:10.669Z,44.00
2022-11-02T11:43:10.655Z,32.00
2022-11-02T11:44:10.625Z,36.00
2022-11-02T11:45:10.626Z,24.00
2022-11-02T11:46:10.787Z,20.00
2022-11-02T11:47:10.646Z,20.00
2022-11-02T11:48:10.595Z,24.00
2022-11-02T11:49:10.593Z,20.00
2022-11-02T11:50:19.602Z,20.00
2022-11-02T11:51:11.577Z,20.00
2022-11-02T11:52:10.532Z,20.00
2022-11-02T11:53:10.542Z,24.00
2022-11-02T11:54:10.528Z,24.00
2022-11-02T11:55:10.577Z,28.00
2022-11-02T11:56:10.518Z,36.00
2022-11-02T11:57:10.504Z,60.00
2022-11-02T11:58:10.474Z,32.00
2022-11-02T11:59:10.465Z,36.00
2022-11-02T12:00:10.583Z,32.00
2022-11-02T12:01:11.064Z,48.00
2022-11-02T12:02:10.636Z,36.00
2022-11-02T12:03:10.745Z,44.00
2022-11-02T12:04:10.449Z,56.00
2022-11-02T12:05:10.443Z,44.00
2022-11-02T12:06:10.393Z,36.00
2022-11-02T12:07:10.388Z,32.00
2022-11-02T12:08:10.878Z,32.00
2022-11-02T12:09:10.356Z,36.00
2022-11-02T12:10:10.363Z,40.00
2022-11-02T12:11:12.702Z,24.00
2022-11-02T12:12:11.317Z,28.00
2022-11-02T12:13:10.320Z,24.00
2022-11-02T12:14:10.315Z,24.00
2022-11-02T12:15:10.320Z,24.00
2022-11-02T12:16:10.299Z,20.00
2022-11-02T12:17:10.261Z,20.00
2022-11-02T12:18:10.278Z,20.00
2022-11-02T12:19:10.253Z,16.00
2022-11-02T12:20:10.252Z,16.00
2022-11-02T12:21:10.214Z,16.00
2022-11-02T12:22:10.234Z,16.00
2022-11-02T12:23:10.219Z,16.00
2022-11-02T12:24:10.189Z,12.00
2022-11-02T12:25:10.193Z,12.00
2022-11-02T12:26:10.186Z,16.00
2022-11-02T12:27:10.184Z,16.00
2022-11-02T12:28:10.126Z,16.00
2022-11-02T12:29:10.125Z,16.00
2022-11-02T12:30:10.141Z,16.00
2022-11-02T12:31:10.117Z,20.00
2022-11-02T12:32:10.114Z,20.00
2022-11-02T12:33:10.146Z,20.00
2022-11-02T12:34:10.095Z,20.00
2022-11-02T12:36:11.081Z,20.00
2022-11-02T12:37:33.128Z,20.00
2022-11-02T12:38:11.047Z,24.00
2022-11-02T12:39:10.025Z,40.00
2022-11-02T12:40:10.054Z,36.00
2022-11-02T12:41:10.027Z,96.00
2022-11-02T12:42:09.971Z,40.00
2022-11-02T12:43:09.977Z,32.00
2022-11-02T12:44:09.989Z,28.00
2022-11-02T12:45:09.957Z,24.00
2022-11-02T12:46:10.080Z,24.00
2022-11-02T12:47:10.007Z,20.00
2022-11-02T12:48:09.922Z,24.00
2022-11-02T12:49:09.940Z,24.00
2022-11-02T12:50:09.881Z,20.00
2022-11-02T12:51:09.899Z,20.00
2022-11-02T12:52:09.878Z,20.00
2022-11-02T12:53:09.852Z,24.00
2022-11-02T12:54:09.892Z,24.00
2022-11-02T12:55:13.228Z,24.00
2022-11-02T12:56:10.852Z,20.00
2022-11-02T12:57:09.836Z,24.00
2022-11-02T12:58:09.840Z,24.00
2022-11-02T12:59:09.805Z,20.00
2022-11-02T13:00:09.780Z,20.00
2022-11-02T13:01:13.633Z,20.00
2022-11-02T13:02:09.768Z,24.00
2022-11-02T13:03:09.773Z,24.00
2022-11-02T13:04:09.788Z,20.00
2022-11-02T13:05:09.767Z,20.00
2022-11-02T13:06:09.754Z,20.00
2022-11-02T13:07:09.725Z,20.00
2022-11-02T13:08:09.715Z,20.00
2022-11-02T13:09:09.730Z,24.00
2022-11-02T13:10:09.703Z,28.00
2022-11-02T13:11:09.673Z,28.00
2022-11-02T13:12:09.679Z,24.00
2022-11-02T13:13:09.647Z,24.00
2022-11-02T13:14:14.331Z,20.00